createdAt,value
2022-10-13T00:02:03.743Z,70.85
2022-10-13T00:04:49.304Z,71.93
2022-10-13T00:07:32.671Z,70.34
2022-10-13T00:10:16.104Z,70.75
2022-10-13T00:12:59.477Z,70.54
2022-10-13T00:15:46.318Z,71.02
2022-10-13T00:18:29.785Z,70.56
2022-10-13T00:21:19.271Z,71.38
2022-10-13T00:24:04.234Z,70.70
2022-10-13T00:26:50.979Z,70.87
2022-10-13T00:29:35.743Z,71.58
2022-10-13T00:32:19.696Z,72.05
2022-10-13T00:35:03.519Z,71.44
2022-10-13T00:37:46.875Z,71.04
2022-10-13T00:40:30.252Z,71.32
2022-10-13T00:43:18.724Z,72.61
2022-10-13T00:46:02.109Z,72.89
2022-10-13T00:48:49.066Z,72.13
2022-10-13T00:51:38.164Z,72.21
2022-10-13T00:54:25.512Z,72.15
2022-10-13T00:57:10.928Z,72.97
2022-10-13T00:59:54.893Z,71.89
2022-10-13T01:02:38.473Z,72.84
2022-10-13T01:05:22.621Z,71.52
2022-10-13T01:08:06.381Z,72.33
2022-10-13T01:11:23.387Z,72.88
2022-10-13T01:14:33.050Z,72.04
2022-10-13T01:18:00.462Z,72.39
2022-10-13T01:20:51.170Z,73.24
2022-10-13T01:23:58.977Z,72.72
2022-10-13T01:27:08.235Z,74.34
2022-10-13T01:30:20.833Z,73.44
2022-10-13T01:33:10.114Z,72.46
2022-10-13T01:36:07.016Z,71.89
2022-10-13T01:39:00.154Z,73.16
2022-10-13T01:41:53.027Z,72.15
2022-10-13T01:44:43.010Z,72.18
2022-10-13T01:47:30.429Z,72.34
2022-10-13T01:50:19.112Z,72.77
2022-10-13T01:53:05.283Z,72.05
2022-10-13T01:55:52.246Z,72.12
2022-10-13T01:58:38.450Z,73.66
2022-10-13T02:01:57.719Z,73.38
2022-10-13T02:05:22.225Z,73.02
2022-10-13T02:08:50.582Z,72.68
2022-10-13T02:11:34.093Z,75.39
2022-10-13T02:14:27.690Z,75.61
2022-10-13T02:17:11.668Z,80.58
2022-10-13T02:19:57.910Z,78.52
2022-10-13T02:22:47.699Z,78.45
2022-10-13T02:25:33.504Z,77.98
2022-10-13T02:28:19.735Z,77.98
2022-10-13T02:31:03.137Z,77.64
2022-10-13T02:33:46.596Z,77.03
2022-10-13T02:36:29.967Z,77.50
2022-10-13T02:39:13.333Z,77.38
2022-10-13T02:41:56.721Z,76.78
2022-10-13T02:44:40.238Z,75.87
2022-10-13T02:47:24.003Z,75.17
2022-10-13T02:50:08.352Z,76.39
2022-10-13T02:52:52.019Z,80.18
2022-10-13T02:55:35.362Z,76.90
2022-10-13T02:58:18.783Z,75.39
2022-10-13T03:01:15.895Z,74.71
2022-10-13T03:03:59.549Z,75.89
2022-10-13T03:06:42.905Z,74.98
2022-10-13T03:09:27.577Z,75.40
2022-10-13T03:12:10.977Z,75.01
2022-10-13T03:14:54.324Z,75.48
2022-10-13T03:17:37.738Z,75.94
2022-10-13T03:20:21.128Z,74.95
2022-10-13T03:23:04.582Z,74.48
2022-10-13T03:25:47.986Z,74.23
2022-10-13T03:28:31.692Z,73.36
2022-10-13T03:31:15.080Z,73.42
2022-10-13T03:33:58.450Z,75.02
2022-10-13T03:36:41.798Z,73.56
2022-10-13T03:39:25.302Z,73.60
2022-10-13T03:42:09.890Z,75.17
2022-10-13T03:44:56.593Z,73.57
2022-10-13T03:47:40.164Z,73.60
2022-10-13T03:50:23.631Z,74.16
2022-10-13T03:53:07.031Z,73.16
2022-10-13T03:55:56.356Z,73.27
2022-10-13T03:58:39.770Z,74.63
2022-10-13T04:01:27.847Z,75.01
2022-10-13T04:04:13.047Z,74.72
2022-10-13T04:06:58.156Z,74.63
2022-10-13T04:09:41.551Z,74.96
2022-10-13T04:12:25.270Z,74.62
2022-10-13T04:15:09.627Z,73.98
2022-10-13T04:17:53.070Z,75.39
2022-10-13T04:20:40.382Z,76.26
2022-10-13T04:23:23.796Z,76.35
2022-10-13T04:26:07.599Z,75.06
2022-10-13T04:28:53.204Z,73.96
2022-10-13T04:31:38.255Z,75.03
2022-10-13T04:34:21.664Z,75.40
2022-10-13T04:37:05.047Z,75.04
2022-10-13T04:39:48.464Z,75.28
2022-10-13T04:42:31.814Z,75.24
2022-10-13T04:45:15.257Z,75.31
2022-10-13T04:48:01.256Z,75.55
2022-10-13T04:50:44.691Z,75.67
2022-10-13T04:53:47.117Z,75.79
2022-10-13T04:56:30.549Z,75.28
2022-10-13T04:59:18.374Z,76.96
2022-10-13T05:02:03.332Z,75.49
2022-10-13T05:04:46.732Z,75.40
2022-10-13T05:07:31.817Z,74.31
2022-10-13T05:10:15.216Z,75.27
2022-10-13T05:12:58.583Z,76.17
2022-10-13T05:15:41.956Z,75.70
2022-10-13T05:18:25.341Z,76.34
2022-10-13T05:21:24.957Z,76.89
2022-10-13T05:24:13.404Z,77.54
2022-10-13T05:26:58.174Z,75.86
2022-10-13T05:29:41.546Z,76.74
2022-10-13T05:32:24.950Z,76.60
2022-10-13T05:35:09.059Z,78.11
2022-10-13T05:37:56.932Z,76.40
2022-10-13T05:40:40.437Z,77.36
2022-10-13T05:43:24.337Z,76.63
2022-10-13T05:46:08.557Z,76.96
2022-10-13T05:48:56.307Z,76.89
2022-10-13T05:51:47.340Z,75.86
2022-10-13T05:54:43.651Z,76.93
2022-10-13T05:57:56.613Z,77.88
2022-10-13T06:00:43.972Z,78.71
2022-10-13T06:03:28.944Z,80.06
2022-10-13T06:06:12.991Z,80.53
2022-10-13T06:08:56.826Z,80.51
2022-10-13T06:11:40.244Z,80.34
2022-10-13T06:14:23.672Z,81.97
2022-10-13T06:17:08.481Z,81.25
2022-10-13T06:19:51.873Z,82.43
2022-10-13T06:22:36.646Z,82.37
2022-10-13T06:25:20.046Z,80.11
2022-10-13T06:28:03.593Z,81.84
2022-10-13T06:30:53.902Z,81.72
2022-10-13T06:33:38.846Z,82.50
2022-10-13T06:36:22.263Z,81.11
2022-10-13T06:39:05.750Z,82.15
2022-10-13T06:41:50.759Z,83.50
2022-10-13T06:44:34.428Z,81.63
2022-10-13T06:47:20.485Z,81.88
2022-10-13T06:50:03.993Z,82.34
2022-10-13T06:52:47.398Z,80.22
2022-10-13T06:55:30.777Z,82.47
2022-10-13T06:58:14.209Z,83.23
2022-10-13T07:00:57.787Z,82.67
2022-10-13T07:03:41.498Z,83.29
2022-10-13T07:06:25.128Z,81.90
2022-10-13T07:09:10.560Z,82.43
2022-10-13T07:11:54.114Z,81.25
2022-10-13T07:14:39.281Z,80.98
2022-10-13T07:17:25.342Z,82.19
2022-10-13T07:20:09.354Z,81.59
2022-10-13T07:22:55.928Z,81.31
2022-10-13T07:25:41.782Z,82.07
2022-10-13T07:28:26.710Z,84.64
2022-10-13T07:31:14.904Z,83.91
2022-10-13T07:33:59.961Z,83.88
2022-10-13T07:36:44.818Z,86.13
2022-10-13T07:39:28.217Z,85.13
2022-10-13T07:42:11.637Z,86.71
2022-10-13T07:44:55.019Z,84.87
2022-10-13T07:47:38.523Z,83.63
2022-10-13T07:50:24.323Z,84.67
2022-10-13T07:53:08.062Z,85.08
2022-10-13T07:55:51.434Z,83.76
2022-10-13T07:58:40.100Z,83.30
2022-10-13T08:01:23.515Z,86.38
2022-10-13T08:04:07.031Z,85.26
2022-10-13T08:06:50.513Z,84.27
2022-10-13T08:09:34.946Z,83.64
2022-10-13T08:12:18.909Z,83.41
2022-10-13T08:15:06.222Z,83.28
2022-10-13T08:17:50.149Z,83.16
2022-10-13T08:20:41.290Z,83.10
2022-10-13T08:23:27.138Z,81.95
2022-10-13T08:26:24.737Z,80.83
2022-10-13T08:29:24.338Z,81.21
2022-10-13T08:32:08.251Z,80.20
2022-10-13T08:34:51.913Z,80.10
2022-10-13T08:37:35.374Z,79.36
2022-10-13T08:40:23.072Z,78.79
2022-10-13T08:43:21.126Z,77.59
2022-10-13T08:46:04.548Z,76.51
2022-10-13T08:48:48.060Z,76.99
2022-10-13T08:51:31.819Z,76.30
2022-10-13T08:54:19.377Z,75.39
2022-10-13T08:57:05.223Z,76.65
2022-10-13T08:59:49.955Z,77.14
2022-10-13T09:02:33.318Z,75.97
2022-10-13T09:05:48.673Z,76.12
2022-10-13T09:08:43.996Z,76.12
2022-10-13T09:11:33.931Z,76.40
2022-10-13T09:14:23.270Z,76.07
2022-10-13T09:17:26.880Z,73.94
2022-10-13T09:20:27.694Z,74.27
2022-10-13T09:23:23.109Z,74.27
2022-10-13T09:26:15.886Z,75.66
2022-10-13T09:29:15.796Z,74.66
2022-10-13T09:32:23.891Z,75.42
2022-10-13T09:35:22.328Z,75.27
2022-10-13T09:38:15.076Z,75.70
2022-10-13T09:41:20.749Z,75.09
2022-10-13T09:44:17.936Z,75.09
2022-10-13T09:47:03.948Z,75.32
2022-10-13T09:50:06.585Z,74.75
2022-10-13T09:52:51.195Z,75.10
2022-10-13T09:55:36.307Z,74.78
2022-10-13T09:58:31.068Z,73.32
2022-10-13T10:01:24.679Z,73.93
2022-10-13T10:04:16.439Z,72.56
2022-10-13T10:07:02.345Z,73.34
2022-10-13T10:09:54.762Z,73.92
2022-10-13T10:12:43.752Z,72.23
2022-10-13T10:16:09.957Z,71.48
2022-10-13T10:19:37.690Z,72.66
2022-10-13T10:22:42.593Z,73.94
2022-10-13T10:25:51.660Z,72.20
2022-10-13T10:29:06.401Z,72.64
2022-10-13T10:32:26.143Z,70.84
2022-10-13T10:35:34.191Z,72.96
2022-10-13T10:38:48.595Z,71.79
2022-10-13T10:42:21.476Z,71.36
2022-10-13T10:45:26.132Z,70.94
2022-10-13T10:48:23.700Z,70.12
2022-10-13T10:51:10.221Z,70.45
2022-10-13T10:54:21.827Z,69.79
2022-10-13T10:57:29.989Z,69.63
2022-10-13T11:00:22.506Z,70.44
2022-10-13T11:03:42.175Z,71.24
2022-10-13T11:06:38.340Z,71.73
2022-10-13T11:09:43.607Z,70.87
2022-10-13T11:13:15.322Z,70.96
2022-10-13T11:16:33.565Z,70.55
2022-10-13T11:19:37.348Z,69.64
2022-10-13T11:22:30.544Z,68.28
2022-10-13T11:25:42.156Z,68.16
2022-10-13T11:28:27.329Z,67.15
2022-10-13T11:31:13.567Z,67.78
2022-10-13T11:34:01.426Z,66.83
2022-10-13T11:36:54.848Z,67.00
2022-10-13T11:40:00.811Z,67.36
2022-10-13T11:43:05.093Z,66.12
2022-10-13T11:46:11.198Z,65.14
2022-10-13T11:49:03.671Z,66.70
2022-10-13T11:52:03.311Z,65.42
2022-10-13T11:55:01.917Z,67.66
2022-10-13T11:57:45.391Z,66.07
2022-10-13T12:00:28.752Z,65.71
2022-10-13T12:03:22.590Z,65.29
2022-10-13T12:06:23.406Z,64.31
2022-10-13T12:09:21.437Z,63.44
2022-10-13T12:12:17.741Z,62.87
2022-10-13T12:15:05.918Z,62.78
2022-10-13T12:17:50.517Z,61.83
2022-10-13T12:20:33.945Z,62.58
2022-10-13T12:23:18.118Z,62.59
2022-10-13T12:26:02.428Z,63.75
2022-10-13T12:29:00.961Z,63.00
2022-10-13T12:31:48.373Z,62.66
2022-10-13T12:34:36.059Z,62.44
2022-10-13T12:37:33.652Z,62.60
2022-10-13T12:40:19.198Z,62.25
2022-10-13T12:43:05.361Z,60.62
2022-10-13T12:45:48.875Z,60.82
2022-10-13T12:48:36.822Z,61.26
2022-10-13T12:51:27.998Z,60.66
2022-10-13T12:54:34.082Z,61.22
2022-10-13T12:57:35.125Z,61.75
2022-10-13T13:00:26.743Z,62.29
2022-10-13T13:03:27.162Z,62.22
2022-10-13T13:06:13.324Z,62.69
2022-10-13T13:09:24.319Z,62.66
2022-10-13T13:12:10.538Z,62.72
2022-10-13T13:14:56.080Z,64.05
2022-10-13T13:17:57.289Z,64.12
2022-10-13T13:20:41.923Z,62.85
2022-10-13T13:23:26.799Z,63.01
2022-10-13T13:26:24.485Z,62.93
2022-10-13T13:29:10.761Z,63.13
2022-10-13T13:31:54.163Z,62.70
2022-10-13T13:34:37.505Z,62.93
2022-10-13T13:37:29.821Z,63.25
2022-10-13T13:40:26.292Z,63.60
2022-10-13T13:43:09.663Z,63.51
2022-10-13T13:45:53.038Z,64.08
2022-10-13T13:48:36.408Z,63.21
2022-10-13T13:51:21.288Z,62.37
2022-10-13T13:54:05.370Z,63.02
2022-10-13T13:56:48.808Z,62.91
2022-10-13T13:59:32.630Z,63.19
2022-10-13T14:02:21.083Z,62.51
2022-10-13T14:05:05.394Z,61.92
2022-10-13T14:07:48.893Z,62.72
2022-10-13T14:10:32.306Z,62.76
2022-10-13T14:13:15.672Z,61.95
2022-10-13T14:16:01.512Z,61.57
2022-10-13T14:18:44.937Z,60.63
2022-10-13T14:21:28.330Z,60.25
2022-10-13T14:24:13.517Z,59.79
2022-10-13T14:26:56.915Z,59.52
2022-10-13T14:29:40.502Z,59.31
2022-10-13T14:32:23.914Z,59.29
2022-10-13T14:35:07.743Z,59.53
2022-10-13T14:37:51.098Z,60.08
2022-10-13T14:40:34.508Z,60.12
2022-10-13T14:43:17.843Z,60.22
2022-10-13T14:46:04.584Z,59.73
2022-10-13T14:48:48.004Z,60.19
2022-10-13T14:51:32.955Z,60.79
2022-10-13T14:54:16.801Z,61.54
2022-10-13T14:57:05.068Z,59.89
2022-10-13T14:59:48.501Z,60.75
2022-10-13T15:02:31.884Z,60.57
2022-10-13T15:05:15.301Z,60.43
2022-10-13T15:07:58.788Z,61.46
2022-10-13T15:10:42.158Z,60.76
2022-10-13T15:13:25.731Z,60.95
2022-10-13T15:16:32.633Z,60.27
2022-10-13T15:19:15.995Z,60.16
2022-10-13T15:21:59.346Z,59.44
2022-10-13T15:24:43.541Z,59.82
2022-10-13T15:27:26.884Z,59.34
2022-10-13T15:30:10.882Z,59.44
2022-10-13T15:32:54.315Z,59.04
2022-10-13T15:35:37.718Z,60.02
2022-10-13T15:38:21.648Z,60.91
2022-10-13T15:41:06.990Z,60.54
2022-10-13T15:43:50.385Z,60.74
2022-10-13T15:46:33.759Z,62.24
2022-10-13T15:49:17.148Z,62.33
2022-10-13T15:52:00.653Z,63.66
2022-10-13T15:54:44.119Z,63.94
2022-10-13T15:57:27.553Z,63.83
2022-10-13T16:00:14.043Z,63.83
2022-10-13T16:02:57.855Z,63.70
2022-10-13T16:05:43.531Z,64.31
2022-10-13T16:08:26.989Z,63.99
2022-10-13T16:11:13.881Z,64.15
2022-10-13T16:13:57.297Z,64.06
2022-10-13T16:16:40.682Z,64.14
2022-10-13T16:19:24.093Z,63.72
2022-10-13T16:22:07.633Z,63.20
2022-10-13T16:24:51.038Z,63.47
2022-10-13T16:27:34.492Z,64.03
2022-10-13T16:30:17.937Z,64.65
2022-10-13T16:33:01.288Z,64.39
2022-10-13T16:35:44.723Z,65.80
2022-10-13T16:38:30.552Z,65.54
2022-10-13T16:41:18.159Z,63.79
2022-10-13T16:44:01.538Z,64.26
2022-10-13T16:46:45.570Z,64.24
2022-10-13T16:49:30.045Z,64.25
2022-10-13T16:52:13.522Z,63.67
2022-10-13T16:54:57.498Z,64.62
2022-10-13T16:57:40.851Z,65.22
2022-10-13T17:00:24.296Z,64.49
2022-10-13T17:03:09.465Z,64.52
2022-10-13T17:05:53.312Z,66.80
2022-10-13T17:08:38.025Z,64.55
2022-10-13T17:11:26.969Z,64.54
2022-10-13T17:14:11.051Z,66.46
2022-10-13T17:16:57.817Z,67.04
2022-10-13T17:19:41.724Z,67.44
2022-10-13T17:22:25.107Z,68.54
2022-10-13T17:25:08.977Z,69.69
2022-10-13T17:27:52.403Z,67.89
2022-10-13T17:30:35.815Z,68.74
2022-10-13T17:33:19.253Z,69.52
2022-10-13T17:36:08.075Z,67.69
2022-10-13T17:38:55.134Z,68.55
2022-10-13T17:41:38.592Z,68.80
2022-10-13T17:44:22.000Z,67.13
2022-10-13T17:47:05.381Z,66.62
2022-10-13T17:49:48.810Z,68.78
2022-10-13T17:52:32.336Z,67.38
2022-10-13T17:55:15.776Z,67.80
2022-10-13T17:57:59.307Z,69.70
2022-10-13T18:01:08.182Z,70.24
2022-10-13T18:03:52.392Z,71.17
2022-10-13T18:06:43.882Z,69.36
2022-10-13T18:09:27.751Z,69.15
2022-10-13T18:12:12.091Z,68.23
2022-10-13T18:14:55.465Z,69.06
2022-10-13T18:17:38.845Z,69.86
2022-10-13T18:20:22.252Z,70.03
2022-10-13T18:23:08.529Z,71.55
2022-10-13T18:25:55.550Z,71.95
2022-10-13T18:28:43.424Z,71.51
2022-10-13T18:31:36.735Z,72.02
2022-10-13T18:34:20.220Z,69.91
2022-10-13T18:37:05.573Z,68.34
2022-10-13T18:39:49.700Z,67.35
2022-10-13T18:42:33.350Z,68.57
2022-10-13T18:45:17.305Z,67.44
2022-10-13T18:48:00.736Z,67.28
2022-10-13T18:50:44.334Z,70.50
2022-10-13T18:53:27.718Z,69.71
2022-10-13T18:56:21.691Z,70.59
2022-10-13T18:59:08.151Z,69.03
2022-10-13T19:01:51.885Z,67.66
2022-10-13T19:04:36.359Z,68.04
2022-10-13T19:07:20.221Z,69.55
2022-10-13T19:10:04.187Z,69.17
2022-10-13T19:12:47.598Z,70.50
2022-10-13T19:15:31.388Z,70.07
2022-10-13T19:18:16.276Z,70.45
2022-10-13T19:21:02.442Z,69.08
2022-10-13T19:23:45.974Z,69.06
2022-10-13T19:26:37.440Z,69.58
2022-10-13T19:29:21.345Z,70.21
2022-10-13T19:32:05.830Z,73.01
2022-10-13T19:34:49.600Z,72.45
2022-10-13T19:37:33.031Z,73.54
2022-10-13T19:40:16.843Z,71.34
2022-10-13T19:43:00.261Z,69.62
2022-10-13T19:45:57.389Z,70.03
2022-10-13T19:48:44.900Z,70.39
2022-10-13T19:51:28.314Z,69.70
2022-10-13T19:54:13.066Z,68.94
2022-10-13T19:57:00.360Z,69.39
2022-10-13T19:59:47.543Z,71.01
2022-10-13T20:02:31.454Z,73.21
2022-10-13T20:05:15.085Z,71.32
2022-10-13T20:07:58.929Z,70.76
2022-10-13T20:10:43.873Z,71.42
2022-10-13T20:13:27.552Z,69.95
2022-10-13T20:16:22.112Z,71.20
2022-10-13T20:19:07.003Z,71.27
2022-10-13T20:21:53.103Z,71.11
2022-10-13T20:24:36.565Z,72.59
2022-10-13T20:27:20.175Z,72.72
2022-10-13T20:30:04.433Z,71.41
2022-10-13T20:32:48.935Z,70.46
2022-10-13T20:35:32.438Z,69.96
2022-10-13T20:38:18.236Z,70.49
2022-10-13T20:41:10.589Z,69.58
2022-10-13T20:43:57.863Z,70.42
2022-10-13T20:46:41.487Z,71.13
2022-10-13T20:49:24.940Z,70.26
2022-10-13T20:52:08.600Z,70.21
2022-10-13T20:54:52.022Z,70.16
2022-10-13T20:57:35.476Z,69.96
2022-10-13T21:00:19.146Z,70.65
2022-10-13T21:03:02.556Z,69.76
2022-10-13T21:05:51.387Z,69.80
2022-10-13T21:08:35.456Z,69.72
2022-10-13T21:11:22.211Z,70.65
2022-10-13T21:14:08.476Z,70.44
2022-10-13T21:16:53.067Z,70.64
2022-10-13T21:19:36.634Z,70.05
2022-10-13T21:22:20.040Z,69.98
2022-10-13T21:25:03.586Z,70.19
2022-10-13T21:27:46.958Z,70.76
2022-10-13T21:30:31.848Z,71.04
2022-10-13T21:33:15.224Z,71.16
2022-10-13T21:35:58.792Z,70.66
2022-10-13T21:38:44.130Z,70.92
2022-10-13T21:41:28.846Z,72.36
2022-10-13T21:44:14.561Z,72.28
2022-10-13T21:46:57.996Z,72.64
2022-10-13T21:49:41.402Z,72.88
2022-10-13T21:52:25.146Z,72.68
2022-10-13T21:55:08.803Z,71.91
2022-10-13T21:57:52.198Z,72.33
2022-10-13T22:00:37.526Z,73.68
2022-10-13T22:03:21.065Z,72.84
2022-10-13T22:06:18.531Z,72.87
2022-10-13T22:09:05.795Z,72.49
2022-10-13T22:11:52.846Z,72.46
2022-10-13T22:14:39.019Z,73.12
2022-10-13T22:17:22.856Z,73.62
2022-10-13T22:20:06.895Z,73.04
2022-10-13T22:22:52.793Z,73.11
2022-10-13T22:25:44.700Z,72.31
2022-10-13T22:28:30.390Z,72.96
2022-10-13T22:31:18.234Z,71.85
2022-10-13T22:34:02.717Z,71.85
2022-10-13T22:36:46.216Z,71.73
2022-10-13T22:39:29.621Z,71.58
2022-10-13T22:42:17.787Z,72.38
2022-10-13T22:45:01.161Z,76.29
2022-10-13T22:47:50.559Z,77.15
2022-10-13T22:50:34.752Z,74.62
2022-10-13T22:53:18.225Z,74.74
2022-10-13T22:56:07.461Z,73.89
2022-10-13T22:58:58.196Z,74.24
2022-10-13T23:01:41.625Z,74.70
2022-10-13T23:04:25.029Z,72.96
2022-10-13T23:07:08.404Z,73.93
2022-10-13T23:09:51.821Z,80.19
2022-10-13T23:12:35.212Z,76.43
2022-10-13T23:15:18.614Z,74.29
2022-10-13T23:18:02.050Z,75.73
2022-10-13T23:20:45.538Z,76.80
2022-10-13T23:23:30.843Z,75.30
2022-10-13T23:26:17.660Z,76.25
2022-10-13T23:29:01.676Z,75.52
2022-10-13T23:31:45.203Z,74.51
2022-10-13T23:34:29.242Z,74.04
2022-10-13T23:37:12.665Z,73.54
2022-10-13T23:39:56.039Z,73.74
2022-10-13T23:42:39.422Z,74.86
2022-10-13T23:45:22.832Z,78.80
2022-10-13T23:48:06.823Z,82.99
2022-10-13T23:50:50.512Z,78.35
2022-10-13T23:53:35.953Z,76.40
2022-10-13T23:56:19.767Z,75.12
2022-10-13T23:59:03.162Z,75.87
